KPMU

Panola County Airport

Batesville, Mississippi, USA
METAR KPMU 190915Z AUTO 00000KT 3SM BR CLR 19/19 A2995 RMK AO2
Observed Flight Rules
Sep-19 @ 09:15 UTC (17 minutes ago) Marginal Visual Flight Rules
Visibility Clouds Conditions
3 miles
  • Clear skies
  • Mist
Temperatures Readings
Current 19°C / 66°F
Dewpoint 19°C / 66°F
Humidity 100%
Altimeter 29.95" Hg
Pressure 1014 hPa
Elevation 67
METAR KPMU 190915Z AUTO 00000KT 3SM BR CLR 19/19 A2995 RMK AO2
Observed Flight Rules
Sep-19 @ 09:15 UTC
(17 minutes ago)
MVFR
Clouds
  • Clear skies
Conditions
  • Mist
Temperature Dewpoint
19°C / 66°F 19°C / 66°F
Humidity Altimeter Pressure
100% 29.95" Hg 1014 hPa